Impacts METAR Board
IDs:

KMIA - Miami Intl, FL, US

Updated at: 1100 UTC 09 Jul 2020
Potential Impact None Slight Moderate High
Time 08/23Z 09/00Z 09/01Z 09/02Z 09/03Z 09/04Z 09/05Z 09/06Z 09/07Z 09/08Z 09/09Z 09/10Z 09/11Z
Temp88 88 87 87 80 82 80 82 83 83 82 82 82
Dewpt75 75 74 75 77 77 77 78 77 77 77 77 77
Altim29.92 29.93 29.95 29.95 29.98 29.99 29.97 29.95 29.94 29.94 29.93 29.94 29.96
VIS10 10 10 10 2 10 10 10 10 10 10 10 10
CIG250 250 250 70 38 55 65 120 120 250 250 250 250
CoverBKNBKNBKNBKNOVCOVCOVCOVCOVCBKNBKNBKNBKN
FltCatVFRVFRVFRVFRIFRVFRVFRVFRVFRVFRVFRVFRVFR
WX------TSTSRA BR----------------
WDir2102102002001502908003003100300300
WSpd7 6 4 4 5 6 3 0 3 3 0 3 4
WGst-- -- -- -- -- -- -- -- -- -- -- -- --
Raw hourly METARs
KMIA 082253Z 21007KT 10SM SCT047 SCT070 BKN250 31/24 A2992 RMK AO2 SLP130 T03110239
KMIA 082353Z 21006KT 10SM FEW040 FEW070 BKN250 31/24 A2993 RMK AO2 SLP135 CB DSNT NW T03110239 10350 20300 55006
KMIA 090053Z COR 20004KT 10SM FEW040 SCT070 BKN250 31/23 A2995 RMK AO2 LTG DSNT S SLP141 CB DSNT S T03060233
KMIA 090153Z COR 20004KT 10SM TS FEW030CB BKN070 BKN250 31/24 A2995 RMK AO2 TSB53 SLP143 OCNL LTGIC N TS N MOV STNRY T03060239
KMIA 090303Z 15005KT 2SM R09/1000VP6000FT TSRA BR FEW027CB BKN038 OVC055 27/25 A2998 RMK AO2 OCNL LTGICCG OHD-SW-N TS OHD-SW-N MOV SE P0010 T02670250
KMIA 090353Z 29006KT 10SM SCT023 BKN055 BKN100 OVC250 28/25 A2999 RMK AO2 RAE37 TSE13 SLP154 P0013 T02780250
KMIA 090453Z 08003KT 10SM FEW023 BKN065 BKN100 OVC250 27/25 A2997 RMK AO2 RAB03E28 SLP147 OCNL LTGIC DSNT NE CB DSNT NE P0001 T02670250 403500261
KMIA 090553Z 00000KT 10SM FEW065 BKN120 OVC250 28/26 A2995 RMK AO2 SLP142 60044 T02780256 10311 20261 58012
KMIA 090653Z 30003KT 10SM FEW075 BKN120 OVC250 28/25 A2994 RMK AO2 SLP140 T02830250
KMIA 090753Z 31003KT 10SM FEW075 FEW120 BKN250 28/25 A2994 RMK AO2 SLP140 T02830250
KMIA 090853Z 00000KT 10SM BKN250 28/25 A2993 RMK AO2 SLP136 OCNL LTGICCC DSNT SW CB DSNT SW T02780250 58006
KMIA 090953Z 30003KT 10SM FEW025 BKN250 28/25 A2994 RMK AO2 SLP137 OCNL LTGICCC DSNT SW CB DSNT SW T02780250
KMIA 091053Z 30004KT 10SM FEW025 BKN250 28/25 A2996 RMK AO2 SLP146 T02780250



Page loaded:  11:39 UTC  |   04:39 AM Pacific  |   05:39 AM Mountain  |   06:39 AM Central  |   07:39 AM Eastern

 

ADVISORIES

FORECASTS

FORECASTS

OBSERVATIONS

USER TOOLS

ABOUT US